sensor_id;sensor_type;location;lat;lon;timestamp;P1;durP1;ratioP1;P2;durP2;ratioP2
50988;SDS011;37008;52.210;21.112;2023-06-24T00:01:05;5.28;;;4.75;;
50988;SDS011;37008;52.210;21.112;2023-06-24T00:03:33;8.77;;;4.50;;
50988;SDS011;37008;52.210;21.112;2023-06-24T00:06:07;7.15;;;4.43;;
50988;SDS011;37008;52.210;21.112;2023-06-24T00:08:57;8.18;;;4.63;;
50988;SDS011;37008;52.210;21.112;2023-06-24T00:11:25;6.53;;;4.70;;
50988;SDS011;37008;52.210;21.112;2023-06-24T00:13:54;5.68;;;3.97;;
50988;SDS011;37008;52.210;21.112;2023-06-24T00:16:26;6.97;;;4.50;;
50988;SDS011;37008;52.210;21.112;2023-06-24T00:18:55;10.20;;;4.90;;
50988;SDS011;37008;52.210;21.112;2023-06-24T00:21:28;7.00;;;4.35;;
50988;SDS011;37008;52.210;21.112;2023-06-24T00:23:56;6.30;;;4.72;;
50988;SDS011;37008;52.210;21.112;2023-06-24T00:26:22;5.93;;;4.82;;
50988;SDS011;37008;52.210;21.112;2023-06-24T00:28:51;6.47;;;4.47;;
50988;SDS011;37008;52.210;21.112;2023-06-24T00:31:16;8.68;;;4.30;;
50988;SDS011;37008;52.210;21.112;2023-06-24T00:33:46;7.03;;;4.25;;
50988;SDS011;37008;52.210;21.112;2023-06-24T00:36:12;7.82;;;4.18;;
50988;SDS011;37008;52.210;21.112;2023-06-24T00:38:57;7.25;;;4.45;;
50988;SDS011;37008;52.210;21.112;2023-06-24T00:41:30;8.50;;;4.53;;
50988;SDS011;37008;52.210;21.112;2023-06-24T00:43:57;7.20;;;4.15;;
50988;SDS011;37008;52.210;21.112;2023-06-24T00:46:24;6.18;;;4.70;;
50988;SDS011;37008;52.210;21.112;2023-06-24T00:48:51;5.15;;;3.95;;
50988;SDS011;37008;52.210;21.112;2023-06-24T00:51:17;4.85;;;4.13;;
50988;SDS011;37008;52.210;21.112;2023-06-24T00:53:49;6.15;;;4.50;;
50988;SDS011;37008;52.210;21.112;2023-06-24T00:56:14;5.32;;;4.60;;
50988;SDS011;37008;52.210;21.112;2023-06-24T00:58:43;5.53;;;4.45;;
50988;SDS011;37008;52.210;21.112;2023-06-24T01:01:10;7.47;;;4.25;;
50988;SDS011;37008;52.210;21.112;2023-06-24T01:03:36;6.05;;;4.65;;
50988;SDS011;37008;52.210;21.112;2023-06-24T01:06:06;7.90;;;4.63;;
50988;SDS011;37008;52.210;21.112;2023-06-24T01:08:36;9.15;;;4.45;;
50988;SDS011;37008;52.210;21.112;2023-06-24T01:11:05;6.13;;;4.63;;
50988;SDS011;37008;52.210;21.112;2023-06-24T01:13:36;4.60;;;3.80;;
50988;SDS011;37008;52.210;21.112;2023-06-24T01:16:29;7.50;;;4.30;;
50988;SDS011;37008;52.210;21.112;2023-06-24T01:19:06;6.70;;;4.10;;
50988;SDS011;37008;52.210;21.112;2023-06-24T01:21:55;6.15;;;4.00;;
50988;SDS011;37008;52.210;21.112;2023-06-24T01:27:26;5.30;;;4.18;;
50988;SDS011;37008;52.210;21.112;2023-06-24T01:30:38;7.50;;;4.47;;
50988;SDS011;37008;52.210;21.112;2023-06-24T01:33:18;6.38;;;4.07;;
50988;SDS011;37008;52.210;21.112;2023-06-24T01:35:50;5.45;;;4.13;;
50988;SDS011;37008;52.210;21.112;2023-06-24T01:38:24;6.30;;;4.30;;
50988;SDS011;37008;52.210;21.112;2023-06-24T01:41:10;5.65;;;3.85;;
50988;SDS011;37008;52.210;21.112;2023-06-24T01:43:39;10.32;;;4.30;;
50988;SDS011;37008;52.210;21.112;2023-06-24T01:46:07;6.22;;;4.40;;
50988;SDS011;37008;52.210;21.112;2023-06-24T01:48:35;6.93;;;4.20;;
50988;SDS011;37008;52.210;21.112;2023-06-24T01:51:09;7.25;;;4.60;;
50988;SDS011;37008;52.210;21.112;2023-06-24T01:53:37;7.35;;;4.40;;
50988;SDS011;37008;52.210;21.112;2023-06-24T01:56:23;6.47;;;4.40;;
50988;SDS011;37008;52.210;21.112;2023-06-24T01:58:52;6.07;;;3.92;;
50988;SDS011;37008;52.210;21.112;2023-06-24T02:01:19;5.47;;;4.50;;
50988;SDS011;37008;52.210;21.112;2023-06-24T02:03:46;7.55;;;4.22;;
50988;SDS011;37008;52.210;21.112;2023-06-24T02:06:14;5.88;;;4.38;;
50988;SDS011;37008;52.210;21.112;2023-06-24T02:08:42;5.65;;;4.80;;
50988;SDS011;37008;52.210;21.112;2023-06-24T02:11:09;5.07;;;4.07;;
50988;SDS011;37008;52.210;21.112;2023-06-24T02:13:38;6.90;;;4.68;;
50988;SDS011;37008;52.210;21.112;2023-06-24T02:16:11;8.68;;;4.63;;
50988;SDS011;37008;52.210;21.112;2023-06-24T02:18:38;8.45;;;4.85;;
50988;SDS011;37008;52.210;21.112;2023-06-24T02:21:08;5.95;;;4.38;;
50988;SDS011;37008;52.210;21.112;2023-06-24T02:23:35;7.47;;;4.75;;
50988;SDS011;37008;52.210;21.112;2023-06-24T02:26:05;10.32;;;4.90;;
50988;SDS011;37008;52.210;21.112;2023-06-24T02:28:34;7.32;;;4.63;;
50988;SDS011;37008;52.210;21.112;2023-06-24T02:31:00;7.30;;;5.30;;
50988;SDS011;37008;52.210;21.112;2023-06-24T02:33:29;7.25;;;5.22;;
50988;SDS011;37008;52.210;21.112;2023-06-24T02:35:57;11.15;;;5.35;;
50988;SDS011;37008;52.210;21.112;2023-06-24T02:38:23;6.93;;;4.80;;
50988;SDS011;37008;52.210;21.112;2023-06-24T02:40:49;7.45;;;5.10;;
50988;SDS011;37008;52.210;21.112;2023-06-24T02:43:16;7.38;;;4.72;;
50988;SDS011;37008;52.210;21.112;2023-06-24T02:45:41;5.80;;;4.60;;
50988;SDS011;37008;52.210;21.112;2023-06-24T02:48:10;6.70;;;5.03;;
50988;SDS011;37008;52.210;21.112;2023-06-24T02:50:40;7.07;;;4.80;;
50988;SDS011;37008;52.210;21.112;2023-06-24T02:53:22;8.02;;;5.15;;
50988;SDS011;37008;52.210;21.112;2023-06-24T02:55:47;7.53;;;5.18;;
50988;SDS011;37008;52.210;21.112;2023-06-24T02:58:15;9.82;;;5.10;;
50988;SDS011;37008;52.210;21.112;2023-06-24T03:00:41;7.65;;;5.20;;
50988;SDS011;37008;52.210;21.112;2023-06-24T03:03:06;7.25;;;5.05;;
50988;SDS011;37008;52.210;21.112;2023-06-24T03:05:33;8.52;;;5.85;;
50988;SDS011;37008;52.210;21.112;2023-06-24T03:08:02;8.93;;;5.32;;
50988;SDS011;37008;52.210;21.112;2023-06-24T03:10:31;7.00;;;5.47;;
50988;SDS011;37008;52.210;21.112;2023-06-24T03:12:56;7.43;;;4.93;;
50988;SDS011;37008;52.210;21.112;2023-06-24T03:15:22;8.82;;;5.47;;
50988;SDS011;37008;52.210;21.112;2023-06-24T03:17:48;8.40;;;5.30;;
50988;SDS011;37008;52.210;21.112;2023-06-24T03:20:15;8.23;;;5.78;;
50988;SDS011;37008;52.210;21.112;2023-06-24T03:22:41;8.15;;;5.75;;
50988;SDS011;37008;52.210;21.112;2023-06-24T03:25:07;10.63;;;5.30;;
50988;SDS011;37008;52.210;21.112;2023-06-24T03:27:33;9.30;;;5.50;;
50988;SDS011;37008;52.210;21.112;2023-06-24T03:29:59;9.85;;;5.55;;
50988;SDS011;37008;52.210;21.112;2023-06-24T03:32:25;9.30;;;5.35;;
50988;SDS011;37008;52.210;21.112;2023-06-24T03:34:53;11.55;;;5.68;;
50988;SDS011;37008;52.210;21.112;2023-06-24T03:37:21;8.35;;;5.25;;
50988;SDS011;37008;52.210;21.112;2023-06-24T03:39:47;8.20;;;5.25;;
50988;SDS011;37008;52.210;21.112;2023-06-24T03:42:16;7.95;;;5.63;;
50988;SDS011;37008;52.210;21.112;2023-06-24T03:44:41;7.78;;;5.82;;
50988;SDS011;37008;52.210;21.112;2023-06-24T03:47:07;11.35;;;5.50;;
50988;SDS011;37008;52.210;21.112;2023-06-24T03:49:32;9.85;;;5.30;;
50988;SDS011;37008;52.210;21.112;2023-06-24T03:51:58;9.38;;;5.07;;
50988;SDS011;37008;52.210;21.112;2023-06-24T03:54:37;6.20;;;5.47;;
50988;SDS011;37008;52.210;21.112;2023-06-24T03:57:05;11.43;;;5.55;;
50988;SDS011;37008;52.210;21.112;2023-06-24T03:59:39;11.68;;;5.10;;
50988;SDS011;37008;52.210;21.112;2023-06-24T04:02:05;8.55;;;5.07;;
50988;SDS011;37008;52.210;21.112;2023-06-24T04:04:34;8.50;;;5.75;;
50988;SDS011;37008;52.210;21.112;2023-06-24T04:07:01;6.40;;;5.35;;
50988;SDS011;37008;52.210;21.112;2023-06-24T04:09:36;8.13;;;5.75;;
50988;SDS011;37008;52.210;21.112;2023-06-24T04:12:03;7.57;;;5.63;;
50988;SDS011;37008;52.210;21.112;2023-06-24T04:14:29;11.35;;;6.05;;
50988;SDS011;37008;52.210;21.112;2023-06-24T04:16:54;10.93;;;5.68;;
50988;SDS011;37008;52.210;21.112;2023-06-24T04:19:20;6.95;;;5.75;;
50988;SDS011;37008;52.210;21.112;2023-06-24T04:21:46;6.60;;;5.40;;
50988;SDS011;37008;52.210;21.112;2023-06-24T04:24:14;8.73;;;5.78;;
50988;SDS011;37008;52.210;21.112;2023-06-24T04:26:40;11.23;;;6.03;;
50988;SDS011;37008;52.210;21.112;2023-06-24T04:29:06;8.13;;;5.53;;
50988;SDS011;37008;52.210;21.112;2023-06-24T04:34:09;9.35;;;5.90;;
50988;SDS011;37008;52.210;21.112;2023-06-24T04:36:35;8.63;;;5.50;;
50988;SDS011;37008;52.210;21.112;2023-06-24T04:39:01;7.93;;;5.45;;
50988;SDS011;37008;52.210;21.112;2023-06-24T04:41:30;6.70;;;5.60;;
50988;SDS011;37008;52.210;21.112;2023-06-24T04:43:57;8.45;;;5.85;;
50988;SDS011;37008;52.210;21.112;2023-06-24T04:46:23;6.22;;;4.85;;
50988;SDS011;37008;52.210;21.112;2023-06-24T04:48:48;7.90;;;5.97;;
50988;SDS011;37008;52.210;21.112;2023-06-24T04:51:14;9.25;;;5.15;;
50988;SDS011;37008;52.210;21.112;2023-06-24T04:53:40;9.27;;;5.88;;
50988;SDS011;37008;52.210;21.112;2023-06-24T04:56:05;8.57;;;6.18;;
50988;SDS011;37008;52.210;21.112;2023-06-24T04:58:31;8.60;;;5.25;;
50988;SDS011;37008;52.210;21.112;2023-06-24T05:00:57;9.55;;;5.18;;
50988;SDS011;37008;52.210;21.112;2023-06-24T05:03:23;6.70;;;5.05;;
50988;SDS011;37008;52.210;21.112;2023-06-24T05:05:49;7.95;;;5.18;;
50988;SDS011;37008;52.210;21.112;2023-06-24T05:08:15;8.82;;;5.10;;
50988;SDS011;37008;52.210;21.112;2023-06-24T05:10:40;11.88;;;5.22;;
50988;SDS011;37008;52.210;21.112;2023-06-24T05:13:06;8.98;;;5.57;;
50988;SDS011;37008;52.210;21.112;2023-06-24T05:15:31;9.95;;;4.95;;
50988;SDS011;37008;52.210;21.112;2023-06-24T05:17:57;8.80;;;4.68;;
50988;SDS011;37008;52.210;21.112;2023-06-24T05:20:23;7.32;;;4.95;;
50988;SDS011;37008;52.210;21.112;2023-06-24T05:22:48;7.97;;;5.10;;
50988;SDS011;37008;52.210;21.112;2023-06-24T05:25:14;6.68;;;4.47;;
50988;SDS011;37008;52.210;21.112;2023-06-24T05:27:40;7.82;;;5.07;;
50988;SDS011;37008;52.210;21.112;2023-06-24T05:30:06;8.82;;;4.68;;
50988;SDS011;37008;52.210;21.112;2023-06-24T05:32:32;6.72;;;4.25;;
50988;SDS011;37008;52.210;21.112;2023-06-24T05:34:57;10.52;;;5.25;;
50988;SDS011;37008;52.210;21.112;2023-06-24T05:37:23;7.07;;;4.53;;
50988;SDS011;37008;52.210;21.112;2023-06-24T05:39:48;5.72;;;4.50;;
50988;SDS011;37008;52.210;21.112;2023-06-24T05:42:14;7.75;;;4.50;;
50988;SDS011;37008;52.210;21.112;2023-06-24T05:44:39;7.28;;;4.30;;
50988;SDS011;37008;52.210;21.112;2023-06-24T05:47:05;7.63;;;4.60;;
50988;SDS011;37008;52.210;21.112;2023-06-24T05:49:31;7.55;;;4.28;;
50988;SDS011;37008;52.210;21.112;2023-06-24T05:51:56;8.40;;;4.30;;
50988;SDS011;37008;52.210;21.112;2023-06-24T05:54:22;5.53;;;4.35;;
50988;SDS011;37008;52.210;21.112;2023-06-24T05:56:48;8.35;;;4.45;;
50988;SDS011;37008;52.210;21.112;2023-06-24T05:59:14;6.57;;;4.43;;
50988;SDS011;37008;52.210;21.112;2023-06-24T06:01:39;6.63;;;4.65;;
50988;SDS011;37008;52.210;21.112;2023-06-24T06:04:05;6.05;;;4.35;;
50988;SDS011;37008;52.210;21.112;2023-06-24T06:06:31;6.10;;;4.20;;
50988;SDS011;37008;52.210;21.112;2023-06-24T06:08:56;8.05;;;4.32;;
50988;SDS011;37008;52.210;21.112;2023-06-24T06:11:22;6.15;;;4.18;;
50988;SDS011;37008;52.210;21.112;2023-06-24T06:13:48;5.85;;;4.45;;
50988;SDS011;37008;52.210;21.112;2023-06-24T06:16:13;7.93;;;4.68;;
50988;SDS011;37008;52.210;21.112;2023-06-24T06:18:39;5.85;;;4.22;;
50988;SDS011;37008;52.210;21.112;2023-06-24T06:21:05;5.10;;;3.75;;
50988;SDS011;37008;52.210;21.112;2023-06-24T06:23:30;5.32;;;4.38;;
50988;SDS011;37008;52.210;21.112;2023-06-24T06:25:56;8.90;;;4.85;;
50988;SDS011;37008;52.210;21.112;2023-06-24T06:28:22;7.75;;;4.57;;
50988;SDS011;37008;52.210;21.112;2023-06-24T06:30:47;9.27;;;4.80;;
50988;SDS011;37008;52.210;21.112;2023-06-24T06:33:13;6.40;;;4.53;;
50988;SDS011;37008;52.210;21.112;2023-06-24T06:35:38;6.25;;;4.63;;
50988;SDS011;37008;52.210;21.112;2023-06-24T06:38:04;5.65;;;4.55;;
50988;SDS011;37008;52.210;21.112;2023-06-24T06:40:30;7.13;;;4.68;;
50988;SDS011;37008;52.210;21.112;2023-06-24T06:42:56;6.85;;;4.63;;
50988;SDS011;37008;52.210;21.112;2023-06-24T06:45:24;8.98;;;3.95;;
50988;SDS011;37008;52.210;21.112;2023-06-24T06:47:50;5.63;;;4.00;;
50988;SDS011;37008;52.210;21.112;2023-06-24T06:50:15;13.13;;;4.07;;
50988;SDS011;37008;52.210;21.112;2023-06-24T06:52:41;6.32;;;4.30;;
50988;SDS011;37008;52.210;21.112;2023-06-24T06:55:07;6.95;;;4.13;;
50988;SDS011;37008;52.210;21.112;2023-06-24T06:57:33;7.82;;;3.97;;
50988;SDS011;37008;52.210;21.112;2023-06-24T06:59:58;13.43;;;4.00;;
50988;SDS011;37008;52.210;21.112;2023-06-24T07:02:24;11.32;;;4.50;;
50988;SDS011;37008;52.210;21.112;2023-06-24T07:04:49;6.93;;;3.80;;
50988;SDS011;37008;52.210;21.112;2023-06-24T07:07:16;7.35;;;4.00;;
50988;SDS011;37008;52.210;21.112;2023-06-24T07:09:42;5.15;;;3.95;;
50988;SDS011;37008;52.210;21.112;2023-06-24T07:12:07;5.53;;;3.85;;
50988;SDS011;37008;52.210;21.112;2023-06-24T07:14:33;7.57;;;4.22;;
50988;SDS011;37008;52.210;21.112;2023-06-24T07:16:59;8.27;;;4.15;;
50988;SDS011;37008;52.210;21.112;2023-06-24T07:19:25;5.80;;;4.20;;
50988;SDS011;37008;52.210;21.112;2023-06-24T07:21:51;7.40;;;3.90;;
50988;SDS011;37008;52.210;21.112;2023-06-24T07:24:17;7.55;;;4.32;;
50988;SDS011;37008;52.210;21.112;2023-06-24T07:26:42;7.93;;;4.22;;
50988;SDS011;37008;52.210;21.112;2023-06-24T07:29:08;8.85;;;4.63;;
50988;SDS011;37008;52.210;21.112;2023-06-24T07:31:34;6.65;;;4.40;;
50988;SDS011;37008;52.210;21.112;2023-06-24T07:34:00;7.18;;;4.57;;
50988;SDS011;37008;52.210;21.112;2023-06-24T07:36:26;7.03;;;4.07;;
50988;SDS011;37008;52.210;21.112;2023-06-24T07:38:51;8.20;;;4.78;;
50988;SDS011;37008;52.210;21.112;2023-06-24T07:41:17;7.35;;;4.60;;
50988;SDS011;37008;52.210;21.112;2023-06-24T07:43:43;11.55;;;4.78;;
50988;SDS011;37008;52.210;21.112;2023-06-24T07:46:08;7.13;;;4.57;;
50988;SDS011;37008;52.210;21.112;2023-06-24T07:48:34;6.55;;;4.50;;
50988;SDS011;37008;52.210;21.112;2023-06-24T07:51:00;6.88;;;4.30;;
50988;SDS011;37008;52.210;21.112;2023-06-24T07:53:25;5.57;;;4.68;;
50988;SDS011;37008;52.210;21.112;2023-06-24T07:55:51;7.32;;;3.88;;
50988;SDS011;37008;52.210;21.112;2023-06-24T07:58:17;7.05;;;4.20;;
50988;SDS011;37008;52.210;21.112;2023-06-24T08:00:44;5.82;;;3.92;;
50988;SDS011;37008;52.210;21.112;2023-06-24T08:03:10;8.48;;;4.13;;
50988;SDS011;37008;52.210;21.112;2023-06-24T08:05:35;6.35;;;4.10;;
50988;SDS011;37008;52.210;21.112;2023-06-24T08:08:01;6.38;;;4.15;;
50988;SDS011;37008;52.210;21.112;2023-06-24T08:10:26;4.93;;;3.75;;
50988;SDS011;37008;52.210;21.112;2023-06-24T08:12:52;9.30;;;4.93;;
50988;SDS011;37008;52.210;21.112;2023-06-24T08:15:17;10.73;;;4.20;;
50988;SDS011;37008;52.210;21.112;2023-06-24T08:17:50;6.70;;;4.45;;
50988;SDS011;37008;52.210;21.112;2023-06-24T08:20:17;9.27;;;4.03;;
50988;SDS011;37008;52.210;21.112;2023-06-24T08:22:42;5.68;;;3.85;;
50988;SDS011;37008;52.210;21.112;2023-06-24T08:25:08;5.70;;;3.80;;
50988;SDS011;37008;52.210;21.112;2023-06-24T08:27:33;5.53;;;3.70;;
50988;SDS011;37008;52.210;21.112;2023-06-24T08:29:59;9.80;;;4.03;;
50988;SDS011;37008;52.210;21.112;2023-06-24T08:32:25;3.95;;;3.33;;
50988;SDS011;37008;52.210;21.112;2023-06-24T08:34:50;5.80;;;3.10;;
50988;SDS011;37008;52.210;21.112;2023-06-24T08:37:16;9.07;;;3.30;;
50988;SDS011;37008;52.210;21.112;2023-06-24T08:39:41;6.68;;;3.40;;
50988;SDS011;37008;52.210;21.112;2023-06-24T08:42:07;6.05;;;3.38;;
50988;SDS011;37008;52.210;21.112;2023-06-24T08:44:40;6.35;;;3.20;;
50988;SDS011;37008;52.210;21.112;2023-06-24T08:47:06;6.47;;;2.92;;
50988;SDS011;37008;52.210;21.112;2023-06-24T08:49:32;4.13;;;2.97;;
50988;SDS011;37008;52.210;21.112;2023-06-24T08:52:25;6.70;;;3.13;;
50988;SDS011;37008;52.210;21.112;2023-06-24T08:54:51;6.07;;;3.25;;
50988;SDS011;37008;52.210;21.112;2023-06-24T08:57:17;4.05;;;3.08;;
50988;SDS011;37008;52.210;21.112;2023-06-24T08:59:45;3.90;;;3.03;;
50988;SDS011;37008;52.210;21.112;2023-06-24T09:02:11;6.13;;;3.33;;
50988;SDS011;37008;52.210;21.112;2023-06-24T09:04:38;9.10;;;3.25;;
50988;SDS011;37008;52.210;21.112;2023-06-24T09:07:05;5.93;;;3.45;;
50988;SDS011;37008;52.210;21.112;2023-06-24T09:09:30;4.38;;;3.20;;
50988;SDS011;37008;52.210;21.112;2023-06-24T09:11:57;4.15;;;3.08;;
50988;SDS011;37008;52.210;21.112;2023-06-24T09:14:27;5.05;;;3.60;;
50988;SDS011;37008;52.210;21.112;2023-06-24T09:16:58;4.32;;;3.42;;
50988;SDS011;37008;52.210;21.112;2023-06-24T09:19:28;5.00;;;3.37;;
50988;SDS011;37008;52.210;21.112;2023-06-24T09:22:04;4.75;;;3.17;;
50988;SDS011;37008;52.210;21.112;2023-06-24T09:24:35;5.85;;;2.80;;
50988;SDS011;37008;52.210;21.112;2023-06-24T09:27:02;7.47;;;3.22;;
50988;SDS011;37008;52.210;21.112;2023-06-24T09:29:31;5.70;;;3.13;;
50988;SDS011;37008;52.210;21.112;2023-06-24T09:31:58;4.18;;;3.10;;
50988;SDS011;37008;52.210;21.112;2023-06-24T09:34:25;4.60;;;3.60;;
50988;SDS011;37008;52.210;21.112;2023-06-24T09:36:55;4.82;;;3.55;;
50988;SDS011;37008;52.210;21.112;2023-06-24T09:39:22;7.30;;;3.80;;
50988;SDS011;37008;52.210;21.112;2023-06-24T09:41:57;7.65;;;3.75;;
50988;SDS011;37008;52.210;21.112;2023-06-24T09:44:23;6.47;;;3.63;;
50988;SDS011;37008;52.210;21.112;2023-06-24T09:46:52;6.82;;;3.78;;
50988;SDS011;37008;52.210;21.112;2023-06-24T09:49:18;4.75;;;3.20;;
50988;SDS011;37008;52.210;21.112;2023-06-24T09:51:45;7.78;;;3.38;;
50988;SDS011;37008;52.210;21.112;2023-06-24T09:54:13;6.63;;;3.20;;
50988;SDS011;37008;52.210;21.112;2023-06-24T09:56:42;4.55;;;3.45;;
50988;SDS011;37008;52.210;21.112;2023-06-24T09:59:09;5.85;;;3.67;;
50988;SDS011;37008;52.210;21.112;2023-06-24T10:01:38;4.28;;;3.25;;
50988;SDS011;37008;52.210;21.112;2023-06-24T10:04:05;4.35;;;3.20;;
50988;SDS011;37008;52.210;21.112;2023-06-24T10:06:31;5.93;;;3.67;;
50988;SDS011;37008;52.210;21.112;2023-06-24T10:08:58;4.38;;;3.30;;
50988;SDS011;37008;52.210;21.112;2023-06-24T10:11:25;5.47;;;3.35;;
50988;SDS011;37008;52.210;21.112;2023-06-24T10:13:51;6.35;;;3.60;;
50988;SDS011;37008;52.210;21.112;2023-06-24T10:16:17;4.93;;;3.65;;
50988;SDS011;37008;52.210;21.112;2023-06-24T10:18:43;4.85;;;3.30;;
50988;SDS011;37008;52.210;21.112;2023-06-24T10:21:10;4.95;;;3.63;;
50988;SDS011;37008;52.210;21.112;2023-06-24T10:23:40;6.60;;;3.47;;
50988;SDS011;37008;52.210;21.112;2023-06-24T10:36:58;7.13;;;3.60;;
50988;SDS011;37008;52.210;21.112;2023-06-24T10:47:41;4.75;;;3.50;;
50988;SDS011;37008;52.210;21.112;2023-06-24T10:50:15;5.35;;;3.40;;
50988;SDS011;37008;52.210;21.112;2023-06-24T10:52:44;6.50;;;3.67;;
50988;SDS011;37008;52.210;21.112;2023-06-24T10:55:13;7.07;;;3.40;;
50988;SDS011;37008;52.210;21.112;2023-06-24T10:57:42;6.38;;;3.70;;
50988;SDS011;37008;52.210;21.112;2023-06-24T11:00:09;5.05;;;3.83;;
50988;SDS011;37008;52.210;21.112;2023-06-24T11:02:35;6.97;;;3.42;;
50988;SDS011;37008;52.210;21.112;2023-06-24T11:05:02;6.93;;;3.30;;
50988;SDS011;37008;52.210;21.112;2023-06-24T11:07:30;6.30;;;3.53;;
50988;SDS011;37008;52.210;21.112;2023-06-24T11:10:01;6.75;;;3.78;;
50988;SDS011;37008;52.210;21.112;2023-06-24T11:12:30;5.85;;;3.78;;
50988;SDS011;37008;52.210;21.112;2023-06-24T11:14:57;5.15;;;3.45;;
50988;SDS011;37008;52.210;21.112;2023-06-24T11:17:27;8.18;;;3.40;;
50988;SDS011;37008;52.210;21.112;2023-06-24T11:19:53;6.40;;;3.42;;
50988;SDS011;37008;52.210;21.112;2023-06-24T11:22:20;4.55;;;3.75;;
50988;SDS011;37008;52.210;21.112;2023-06-24T11:24:47;5.15;;;3.95;;
50988;SDS011;37008;52.210;21.112;2023-06-24T11:27:13;8.35;;;4.07;;
50988;SDS011;37008;52.210;21.112;2023-06-24T11:29:38;5.13;;;3.38;;
50988;SDS011;37008;52.210;21.112;2023-06-24T11:32:06;4.53;;;3.10;;
50988;SDS011;37008;52.210;21.112;2023-06-24T11:34:33;4.10;;;3.20;;
50988;SDS011;37008;52.210;21.112;2023-06-24T11:37:08;8.18;;;3.50;;
50988;SDS011;37008;52.210;21.112;2023-06-24T11:39:37;7.85;;;3.28;;
50988;SDS011;37008;52.210;21.112;2023-06-24T11:42:05;5.22;;;3.40;;
50988;SDS011;37008;52.210;21.112;2023-06-24T11:44:31;5.82;;;3.80;;
50988;SDS011;37008;52.210;21.112;2023-06-24T11:47:06;5.55;;;3.22;;
50988;SDS011;37008;52.210;21.112;2023-06-24T11:49:52;6.60;;;3.40;;
50988;SDS011;37008;52.210;21.112;2023-06-24T11:52:32;5.32;;;3.75;;
50988;SDS011;37008;52.210;21.112;2023-06-24T11:55:00;9.52;;;3.65;;
50988;SDS011;37008;52.210;21.112;2023-06-24T12:00:31;9.73;;;3.88;;
50988;SDS011;37008;52.210;21.112;2023-06-24T12:03:00;8.93;;;4.32;;
50988;SDS011;37008;52.210;21.112;2023-06-24T12:05:31;8.25;;;3.20;;
50988;SDS011;37008;52.210;21.112;2023-06-24T12:08:02;6.18;;;3.63;;
50988;SDS011;37008;52.210;21.112;2023-06-24T12:10:30;8.70;;;3.97;;
50988;SDS011;37008;52.210;21.112;2023-06-24T12:12:59;6.07;;;3.67;;
50988;SDS011;37008;52.210;21.112;2023-06-24T12:15:26;4.47;;;3.33;;
50988;SDS011;37008;52.210;21.112;2023-06-24T12:17:52;6.15;;;3.65;;
50988;SDS011;37008;52.210;21.112;2023-06-24T12:20:18;8.48;;;3.55;;
50988;SDS011;37008;52.210;21.112;2023-06-24T12:22:44;5.93;;;3.50;;
50988;SDS011;37008;52.210;21.112;2023-06-24T12:25:10;6.05;;;3.42;;
50988;SDS011;37008;52.210;21.112;2023-06-24T12:27:36;6.32;;;3.65;;
50988;SDS011;37008;52.210;21.112;2023-06-24T12:30:02;7.32;;;3.80;;
50988;SDS011;37008;52.210;21.112;2023-06-24T12:32:28;5.03;;;3.20;;
50988;SDS011;37008;52.210;21.112;2023-06-24T12:34:54;5.32;;;3.47;;
50988;SDS011;37008;52.210;21.112;2023-06-24T12:37:19;6.68;;;3.78;;
50988;SDS011;37008;52.210;21.112;2023-06-24T12:39:45;5.65;;;3.80;;
50988;SDS011;37008;52.210;21.112;2023-06-24T12:42:11;6.65;;;4.18;;
50988;SDS011;37008;52.210;21.112;2023-06-24T12:44:37;6.38;;;3.70;;
50988;SDS011;37008;52.210;21.112;2023-06-24T12:47:03;8.13;;;3.70;;
50988;SDS011;37008;52.210;21.112;2023-06-24T12:49:28;7.70;;;4.38;;
50988;SDS011;37008;52.210;21.112;2023-06-24T12:51:54;10.60;;;3.63;;
50988;SDS011;37008;52.210;21.112;2023-06-24T12:54:20;5.95;;;3.95;;
50988;SDS011;37008;52.210;21.112;2023-06-24T12:56:45;7.50;;;4.05;;
50988;SDS011;37008;52.210;21.112;2023-06-24T12:59:14;6.45;;;4.13;;
50988;SDS011;37008;52.210;21.112;2023-06-24T13:01:39;7.20;;;3.78;;
50988;SDS011;37008;52.210;21.112;2023-06-24T13:04:09;6.32;;;3.67;;
50988;SDS011;37008;52.210;21.112;2023-06-24T13:06:35;8.15;;;4.20;;
50988;SDS011;37008;52.210;21.112;2023-06-24T13:09:01;9.77;;;4.03;;
50988;SDS011;37008;52.210;21.112;2023-06-24T13:11:27;6.82;;;4.20;;
50988;SDS011;37008;52.210;21.112;2023-06-24T13:13:53;6.82;;;3.90;;
50988;SDS011;37008;52.210;21.112;2023-06-24T13:16:19;6.78;;;4.60;;
50988;SDS011;37008;52.210;21.112;2023-06-24T13:18:45;7.05;;;4.13;;
50988;SDS011;37008;52.210;21.112;2023-06-24T13:21:10;6.88;;;4.30;;
50988;SDS011;37008;52.210;21.112;2023-06-24T13:23:36;7.18;;;4.35;;
50988;SDS011;37008;52.210;21.112;2023-06-24T13:26:03;6.32;;;4.20;;
50988;SDS011;37008;52.210;21.112;2023-06-24T13:28:29;6.95;;;4.70;;
50988;SDS011;37008;52.210;21.112;2023-06-24T13:30:56;9.55;;;6.15;;
50988;SDS011;37008;52.210;21.112;2023-06-24T13:33:22;9.50;;;5.00;;
50988;SDS011;37008;52.210;21.112;2023-06-24T13:35:48;8.73;;;4.50;;
50988;SDS011;37008;52.210;21.112;2023-06-24T13:38:16;5.78;;;4.40;;
50988;SDS011;37008;52.210;21.112;2023-06-24T13:40:42;4.47;;;3.97;;
50988;SDS011;37008;52.210;21.112;2023-06-24T13:43:08;9.10;;;5.05;;
50988;SDS011;37008;52.210;21.112;2023-06-24T13:45:33;7.65;;;4.25;;
50988;SDS011;37008;52.210;21.112;2023-06-24T13:47:59;9.00;;;4.35;;
50988;SDS011;37008;52.210;21.112;2023-06-24T13:50:25;7.28;;;3.95;;
50988;SDS011;37008;52.210;21.112;2023-06-24T13:52:50;6.40;;;4.22;;
50988;SDS011;37008;52.210;21.112;2023-06-24T13:55:16;7.90;;;5.68;;
50988;SDS011;37008;52.210;21.112;2023-06-24T13:57:42;7.90;;;4.45;;
50988;SDS011;37008;52.210;21.112;2023-06-24T14:00:07;7.03;;;3.72;;
50988;SDS011;37008;52.210;21.112;2023-06-24T14:02:36;5.97;;;3.53;;
50988;SDS011;37008;52.210;21.112;2023-06-24T14:05:02;6.28;;;3.67;;
50988;SDS011;37008;52.210;21.112;2023-06-24T14:07:27;7.07;;;3.85;;
50988;SDS011;37008;52.210;21.112;2023-06-24T14:09:54;9.95;;;7.88;;
50988;SDS011;37008;52.210;21.112;2023-06-24T14:12:20;8.60;;;3.67;;
50988;SDS011;37008;52.210;21.112;2023-06-24T14:14:45;4.75;;;3.10;;
50988;SDS011;37008;52.210;21.112;2023-06-24T14:17:11;4.72;;;3.15;;
50988;SDS011;37008;52.210;21.112;2023-06-24T14:19:37;4.78;;;2.83;;
50988;SDS011;37008;52.210;21.112;2023-06-24T14:22:04;7.70;;;2.90;;
50988;SDS011;37008;52.210;21.112;2023-06-24T14:24:30;6.28;;;3.35;;
50988;SDS011;37008;52.210;21.112;2023-06-24T14:26:56;6.03;;;3.30;;
50988;SDS011;37008;52.210;21.112;2023-06-24T14:29:22;3.60;;;3.17;;
50988;SDS011;37008;52.210;21.112;2023-06-24T14:31:48;5.53;;;3.40;;
50988;SDS011;37008;52.210;21.112;2023-06-24T14:34:13;4.45;;;3.30;;
50988;SDS011;37008;52.210;21.112;2023-06-24T14:36:39;4.75;;;3.20;;
50988;SDS011;37008;52.210;21.112;2023-06-24T14:39:04;7.63;;;3.50;;
50988;SDS011;37008;52.210;21.112;2023-06-24T14:41:30;5.78;;;3.33;;
50988;SDS011;37008;52.210;21.112;2023-06-24T14:43:56;7.90;;;3.67;;
50988;SDS011;37008;52.210;21.112;2023-06-24T14:46:21;5.68;;;3.55;;
50988;SDS011;37008;52.210;21.112;2023-06-24T14:48:47;4.85;;;3.50;;
50988;SDS011;37008;52.210;21.112;2023-06-24T14:51:12;4.68;;;3.42;;
50988;SDS011;37008;52.210;21.112;2023-06-24T14:53:38;5.65;;;3.90;;
50988;SDS011;37008;52.210;21.112;2023-06-24T14:56:05;6.03;;;3.38;;
50988;SDS011;37008;52.210;21.112;2023-06-24T14:58:31;5.40;;;3.92;;
50988;SDS011;37008;52.210;21.112;2023-06-24T15:00:56;6.93;;;4.70;;
50988;SDS011;37008;52.210;21.112;2023-06-24T15:03:22;6.30;;;4.63;;